sensor_id;sensor_type;location;lat;lon;timestamp;temperature;humidity
27026;DHT22;14565;48.626;8.978;2023-03-01T00:00:39;-3.10;99.90
27026;DHT22;14565;48.626;8.978;2023-03-01T00:03:05;-3.20;99.90
27026;DHT22;14565;48.626;8.978;2023-03-01T00:05:31;-3.10;99.90
27026;DHT22;14565;48.626;8.978;2023-03-01T00:07:57;-3.10;99.90
27026;DHT22;14565;48.626;8.978;2023-03-01T00:10:23;-3.10;99.90
27026;DHT22;14565;48.626;8.978;2023-03-01T00:12:49;-3.20;99.90
27026;DHT22;14565;48.626;8.978;2023-03-01T00:15:14;-3.10;99.90
27026;DHT22;14565;48.626;8.978;2023-03-01T00:17:40;-3.10;99.90
27026;DHT22;14565;48.626;8.978;2023-03-01T00:20:06;-3.20;99.90
27026;DHT22;14565;48.626;8.978;2023-03-01T00:22:36;-3.30;99.90
27026;DHT22;14565;48.626;8.978;2023-03-01T00:25:02;-3.30;99.90
27026;DHT22;14565;48.626;8.978;2023-03-01T00:27:28;-3.30;99.90
27026;DHT22;14565;48.626;8.978;2023-03-01T00:29:54;-3.30;99.90
27026;DHT22;14565;48.626;8.978;2023-03-01T00:32:19;-3.20;99.90
27026;DHT22;14565;48.626;8.978;2023-03-01T00:34:46;-3.10;99.90
27026;DHT22;14565;48.626;8.978;2023-03-01T00:37:23;-3.10;99.90
27026;DHT22;14565;48.626;8.978;2023-03-01T00:39:49;-3.10;99.90
27026;DHT22;14565;48.626;8.978;2023-03-01T00:42:16;-3.10;99.90
27026;DHT22;14565;48.626;8.978;2023-03-01T00:44:42;-3.10;99.90
27026;DHT22;14565;48.626;8.978;2023-03-01T00:47:08;-3.20;99.90
27026;DHT22;14565;48.626;8.978;2023-03-01T00:49:34;-3.20;99.90
27026;DHT22;14565;48.626;8.978;2023-03-01T00:52:00;-3.20;99.90
27026;DHT22;14565;48.626;8.978;2023-03-01T00:54:26;-3.40;99.90
27026;DHT22;14565;48.626;8.978;2023-03-01T00:56:51;-3.50;99.90
27026;DHT22;14565;48.626;8.978;2023-03-01T00:59:17;-3.60;99.90
27026;DHT22;14565;48.626;8.978;2023-03-01T01:01:43;-3.60;99.90
27026;DHT22;14565;48.626;8.978;2023-03-01T01:04:11;-3.50;99.90
27026;DHT22;14565;48.626;8.978;2023-03-01T01:06:43;-3.40;99.90
27026;DHT22;14565;48.626;8.978;2023-03-01T01:09:11;-3.50;99.90
27026;DHT22;14565;48.626;8.978;2023-03-01T01:11:46;-3.40;99.90
27026;DHT22;14565;48.626;8.978;2023-03-01T01:14:13;-3.60;99.90
27026;DHT22;14565;48.626;8.978;2023-03-01T01:16:39;-3.70;99.90
27026;DHT22;14565;48.626;8.978;2023-03-01T01:19:05;-3.70;99.90
27026;DHT22;14565;48.626;8.978;2023-03-01T01:21:31;-3.80;99.90
27026;DHT22;14565;48.626;8.978;2023-03-01T01:23:58;-3.70;99.90
27026;DHT22;14565;48.626;8.978;2023-03-01T01:26:29;-3.70;99.90
27026;DHT22;14565;48.626;8.978;2023-03-01T01:28:55;-3.70;99.90
27026;DHT22;14565;48.626;8.978;2023-03-01T01:31:21;-3.70;99.90
27026;DHT22;14565;48.626;8.978;2023-03-01T01:33:49;-3.70;99.90
27026;DHT22;14565;48.626;8.978;2023-03-01T01:36:15;-3.70;99.90
27026;DHT22;14565;48.626;8.978;2023-03-01T01:38:41;-3.90;99.90
27026;DHT22;14565;48.626;8.978;2023-03-01T01:41:12;-3.90;99.90
27026;DHT22;14565;48.626;8.978;2023-03-01T01:43:49;-3.80;99.90
27026;DHT22;14565;48.626;8.978;2023-03-01T01:48:54;-3.80;99.90
27026;DHT22;14565;48.626;8.978;2023-03-01T01:51:24;-3.80;99.90
27026;DHT22;14565;48.626;8.978;2023-03-01T01:53:55;-3.70;99.90
27026;DHT22;14565;48.626;8.978;2023-03-01T01:56:24;-3.60;99.90
27026;DHT22;14565;48.626;8.978;2023-03-01T01:58:50;-3.70;99.90
27026;DHT22;14565;48.626;8.978;2023-03-01T02:01:16;-3.80;99.90
27026;DHT22;14565;48.626;8.978;2023-03-01T02:03:44;-3.80;99.90
27026;DHT22;14565;48.626;8.978;2023-03-01T02:06:27;-3.90;99.90
27026;DHT22;14565;48.626;8.978;2023-03-01T02:09:02;-4.00;99.90
27026;DHT22;14565;48.626;8.978;2023-03-01T02:11:30;-4.10;99.90
27026;DHT22;14565;48.626;8.978;2023-03-01T02:13:56;-4.10;99.90
27026;DHT22;14565;48.626;8.978;2023-03-01T02:16:22;-3.90;99.90
27026;DHT22;14565;48.626;8.978;2023-03-01T02:18:49;-3.90;99.90
27026;DHT22;14565;48.626;8.978;2023-03-01T02:23:47;-3.70;99.90
27026;DHT22;14565;48.626;8.978;2023-03-01T02:28:51;-3.60;99.90
27026;DHT22;14565;48.626;8.978;2023-03-01T02:31:20;-3.50;99.90
27026;DHT22;14565;48.626;8.978;2023-03-01T02:34:05;-3.40;99.90
27026;DHT22;14565;48.626;8.978;2023-03-01T02:36:37;-3.40;99.90
27026;DHT22;14565;48.626;8.978;2023-03-01T02:39:06;-3.40;99.90
27026;DHT22;14565;48.626;8.978;2023-03-01T02:41:35;-3.30;99.90
27026;DHT22;14565;48.626;8.978;2023-03-01T02:44:03;-3.30;99.90
27026;DHT22;14565;48.626;8.978;2023-03-01T02:46:29;-3.20;99.90
27026;DHT22;14565;48.626;8.978;2023-03-01T02:48:58;-3.10;99.90
27026;DHT22;14565;48.626;8.978;2023-03-01T02:56:47;-2.90;99.90
27026;DHT22;14565;48.626;8.978;2023-03-01T02:59:16;-2.90;99.90
27026;DHT22;14565;48.626;8.978;2023-03-01T03:01:43;-3.00;99.90
27026;DHT22;14565;48.626;8.978;2023-03-01T03:04:12;-2.80;99.90
27026;DHT22;14565;48.626;8.978;2023-03-01T03:06:43;-2.80;99.90
27026;DHT22;14565;48.626;8.978;2023-03-01T03:09:09;-2.80;99.90
27026;DHT22;14565;48.626;8.978;2023-03-01T03:11:35;-2.80;99.90
27026;DHT22;14565;48.626;8.978;2023-03-01T03:14:02;-2.70;99.90
27026;DHT22;14565;48.626;8.978;2023-03-01T03:16:28;-2.60;99.90
27026;DHT22;14565;48.626;8.978;2023-03-01T03:18:55;-2.60;99.90
27026;DHT22;14565;48.626;8.978;2023-03-01T03:21:31;-2.70;99.90
27026;DHT22;14565;48.626;8.978;2023-03-01T03:23:57;-2.70;99.90
27026;DHT22;14565;48.626;8.978;2023-03-01T03:26:23;-2.60;99.90
27026;DHT22;14565;48.626;8.978;2023-03-01T03:28:48;-2.60;99.90
27026;DHT22;14565;48.626;8.978;2023-03-01T03:31:14;-2.50;99.90
27026;DHT22;14565;48.626;8.978;2023-03-01T03:33:40;-2.60;99.90
27026;DHT22;14565;48.626;8.978;2023-03-01T03:36:05;-2.60;99.90
27026;DHT22;14565;48.626;8.978;2023-03-01T03:38:31;-2.50;99.90
27026;DHT22;14565;48.626;8.978;2023-03-01T03:41:06;-2.50;99.90
27026;DHT22;14565;48.626;8.978;2023-03-01T03:43:35;-2.40;99.90
27026;DHT22;14565;48.626;8.978;2023-03-01T03:46:00;-2.30;99.90
27026;DHT22;14565;48.626;8.978;2023-03-01T03:48:32;-2.30;99.90
27026;DHT22;14565;48.626;8.978;2023-03-01T03:50:58;-2.30;99.90
27026;DHT22;14565;48.626;8.978;2023-03-01T03:53:25;-2.30;99.90
27026;DHT22;14565;48.626;8.978;2023-03-01T03:55:52;-2.30;99.90
27026;DHT22;14565;48.626;8.978;2023-03-01T03:58:20;-2.20;99.90
27026;DHT22;14565;48.626;8.978;2023-03-01T04:00:47;-2.30;99.90
27026;DHT22;14565;48.626;8.978;2023-03-01T04:03:14;-2.30;99.90
27026;DHT22;14565;48.626;8.978;2023-03-01T04:05:41;-2.20;99.90
27026;DHT22;14565;48.626;8.978;2023-03-01T04:08:08;-2.20;99.90
27026;DHT22;14565;48.626;8.978;2023-03-01T04:13:05;-2.10;99.90
27026;DHT22;14565;48.626;8.978;2023-03-01T04:15:31;-2.10;99.90
27026;DHT22;14565;48.626;8.978;2023-03-01T04:17:58;-2.00;99.90
27026;DHT22;14565;48.626;8.978;2023-03-01T04:20:30;-1.90;99.90
27026;DHT22;14565;48.626;8.978;2023-03-01T04:22:59;-1.90;99.90
27026;DHT22;14565;48.626;8.978;2023-03-01T04:25:25;-1.90;99.90
27026;DHT22;14565;48.626;8.978;2023-03-01T04:27:51;-1.80;99.90
27026;DHT22;14565;48.626;8.978;2023-03-01T04:30:19;-1.80;99.90
27026;DHT22;14565;48.626;8.978;2023-03-01T04:32:45;-1.70;99.90
27026;DHT22;14565;48.626;8.978;2023-03-01T04:35:10;-1.80;99.90
27026;DHT22;14565;48.626;8.978;2023-03-01T04:37:36;-1.80;99.90
27026;DHT22;14565;48.626;8.978;2023-03-01T04:40:03;-1.80;99.90
27026;DHT22;14565;48.626;8.978;2023-03-01T04:42:41;-1.70;99.90
27026;DHT22;14565;48.626;8.978;2023-03-01T04:45:08;-1.50;99.90
27026;DHT22;14565;48.626;8.978;2023-03-01T04:47:39;-1.70;99.90
27026;DHT22;14565;48.626;8.978;2023-03-01T04:50:06;-1.70;99.90
27026;DHT22;14565;48.626;8.978;2023-03-01T04:52:32;-1.70;99.90
27026;DHT22;14565;48.626;8.978;2023-03-01T04:54:57;-1.80;99.90
27026;DHT22;14565;48.626;8.978;2023-03-01T04:57:23;-1.80;99.90
27026;DHT22;14565;48.626;8.978;2023-03-01T04:59:48;-1.80;99.90
27026;DHT22;14565;48.626;8.978;2023-03-01T05:02:14;-1.60;99.90
27026;DHT22;14565;48.626;8.978;2023-03-01T05:04:40;-1.60;99.90
27026;DHT22;14565;48.626;8.978;2023-03-01T05:07:05;-1.60;99.90
27026;DHT22;14565;48.626;8.978;2023-03-01T05:09:31;-1.40;99.90
27026;DHT22;14565;48.626;8.978;2023-03-01T05:11:57;-1.50;99.90
27026;DHT22;14565;48.626;8.978;2023-03-01T05:14:22;-1.50;99.90
27026;DHT22;14565;48.626;8.978;2023-03-01T05:16:48;-1.50;99.90
27026;DHT22;14565;48.626;8.978;2023-03-01T05:19:13;-1.60;99.90
27026;DHT22;14565;48.626;8.978;2023-03-01T05:21:48;-1.60;99.90
27026;DHT22;14565;48.626;8.978;2023-03-01T05:24:31;-1.50;99.90
27026;DHT22;14565;48.626;8.978;2023-03-01T05:26:57;-1.50;99.90
27026;DHT22;14565;48.626;8.978;2023-03-01T05:29:24;-1.60;99.90
27026;DHT22;14565;48.626;8.978;2023-03-01T05:31:58;-1.50;99.90
27026;DHT22;14565;48.626;8.978;2023-03-01T05:34:32;-1.60;99.90
27026;DHT22;14565;48.626;8.978;2023-03-01T05:36:59;-1.50;99.90
27026;DHT22;14565;48.626;8.978;2023-03-01T05:39:25;-1.50;99.90
27026;DHT22;14565;48.626;8.978;2023-03-01T05:41:56;-1.50;99.90
27026;DHT22;14565;48.626;8.978;2023-03-01T05:44:22;-1.50;99.90
27026;DHT22;14565;48.626;8.978;2023-03-01T05:46:48;-1.50;99.90
27026;DHT22;14565;48.626;8.978;2023-03-01T05:49:14;-1.50;99.90
27026;DHT22;14565;48.626;8.978;2023-03-01T05:51:41;-1.50;99.90
27026;DHT22;14565;48.626;8.978;2023-03-01T05:54:07;-1.50;99.90
27026;DHT22;14565;48.626;8.978;2023-03-01T05:56:34;-1.60;99.90
27026;DHT22;14565;48.626;8.978;2023-03-01T05:59:00;-1.50;99.90
27026;DHT22;14565;48.626;8.978;2023-03-01T06:01:26;-1.60;99.90
27026;DHT22;14565;48.626;8.978;2023-03-01T06:03:51;-1.50;99.90
27026;DHT22;14565;48.626;8.978;2023-03-01T06:06:17;-1.40;99.90
27026;DHT22;14565;48.626;8.978;2023-03-01T06:08:43;-1.20;99.90
27026;DHT22;14565;48.626;8.978;2023-03-01T06:11:08;-1.30;99.90
27026;DHT22;14565;48.626;8.978;2023-03-01T06:13:34;-1.20;99.90
27026;DHT22;14565;48.626;8.978;2023-03-01T06:15:59;-1.30;99.90
27026;DHT22;14565;48.626;8.978;2023-03-01T06:18:25;-1.30;99.90
27026;DHT22;14565;48.626;8.978;2023-03-01T06:20:54;-1.30;99.90
27026;DHT22;14565;48.626;8.978;2023-03-01T06:23:21;-1.30;99.90
27026;DHT22;14565;48.626;8.978;2023-03-01T06:25:47;-1.30;99.90
27026;DHT22;14565;48.626;8.978;2023-03-01T06:28:15;-1.30;99.90
27026;DHT22;14565;48.626;8.978;2023-03-01T06:30:41;-1.30;99.90
27026;DHT22;14565;48.626;8.978;2023-03-01T06:33:07;-1.30;99.90
27026;DHT22;14565;48.626;8.978;2023-03-01T06:35:32;-1.30;99.90
27026;DHT22;14565;48.626;8.978;2023-03-01T06:38:00;-1.00;99.90
27026;DHT22;14565;48.626;8.978;2023-03-01T06:40:26;-1.00;99.90
27026;DHT22;14565;48.626;8.978;2023-03-01T06:42:51;-1.00;99.90
27026;DHT22;14565;48.626;8.978;2023-03-01T06:45:19;-0.90;99.90
27026;DHT22;14565;48.626;8.978;2023-03-01T06:47:45;-1.00;99.90
27026;DHT22;14565;48.626;8.978;2023-03-01T06:50:11;-1.10;99.90
27026;DHT22;14565;48.626;8.978;2023-03-01T06:52:37;-1.10;99.90
27026;DHT22;14565;48.626;8.978;2023-03-01T06:55:03;-0.90;99.90
27026;DHT22;14565;48.626;8.978;2023-03-01T06:57:29;-0.70;99.90
27026;DHT22;14565;48.626;8.978;2023-03-01T06:59:55;-0.50;99.90
27026;DHT22;14565;48.626;8.978;2023-03-01T07:02:21;-0.60;99.90
27026;DHT22;14565;48.626;8.978;2023-03-01T07:04:51;-0.20;99.90
27026;DHT22;14565;48.626;8.978;2023-03-01T07:07:17;-0.40;99.90
27026;DHT22;14565;48.626;8.978;2023-03-01T07:09:44;-0.50;99.90
27026;DHT22;14565;48.626;8.978;2023-03-01T07:12:10;-0.40;99.90
27026;DHT22;14565;48.626;8.978;2023-03-01T07:14:36;-0.50;99.90
27026;DHT22;14565;48.626;8.978;2023-03-01T07:17:01;-0.30;99.90
27026;DHT22;14565;48.626;8.978;2023-03-01T07:19:27;-0.30;99.90
27026;DHT22;14565;48.626;8.978;2023-03-01T07:21:53;-0.20;99.90
27026;DHT22;14565;48.626;8.978;2023-03-01T07:24:19;-0.20;99.90
27026;DHT22;14565;48.626;8.978;2023-03-01T07:26:48;-0.30;99.90
27026;DHT22;14565;48.626;8.978;2023-03-01T07:29:14;-0.20;99.90
27026;DHT22;14565;48.626;8.978;2023-03-01T07:31:40;-0.30;99.90
27026;DHT22;14565;48.626;8.978;2023-03-01T07:34:05;-0.30;99.90
27026;DHT22;14565;48.626;8.978;2023-03-01T07:36:31;-0.30;99.90
27026;DHT22;14565;48.626;8.978;2023-03-01T07:38:57;-0.10;99.90
27026;DHT22;14565;48.626;8.978;2023-03-01T07:41:23;0.10;99.90
27026;DHT22;14565;48.626;8.978;2023-03-01T07:43:49;-0.10;99.90
27026;DHT22;14565;48.626;8.978;2023-03-01T07:46:14;0.00;99.90
27026;DHT22;14565;48.626;8.978;2023-03-01T07:48:40;0.00;99.90
27026;DHT22;14565;48.626;8.978;2023-03-01T07:51:06;0.00;99.90
27026;DHT22;14565;48.626;8.978;2023-03-01T07:53:32;0.10;99.90
27026;DHT22;14565;48.626;8.978;2023-03-01T07:56:12;0.30;99.90
27026;DHT22;14565;48.626;8.978;2023-03-01T07:58:40;0.50;99.90
27026;DHT22;14565;48.626;8.978;2023-03-01T08:01:08;0.70;99.90
27026;DHT22;14565;48.626;8.978;2023-03-01T08:03:35;0.70;99.90
27026;DHT22;14565;48.626;8.978;2023-03-01T08:06:06;0.60;99.90
27026;DHT22;14565;48.626;8.978;2023-03-01T08:08:33;0.60;99.90
27026;DHT22;14565;48.626;8.978;2023-03-01T08:11:00;0.70;99.90
27026;DHT22;14565;48.626;8.978;2023-03-01T08:13:29;0.80;99.90
27026;DHT22;14565;48.626;8.978;2023-03-01T08:15:59;1.00;99.90
27026;DHT22;14565;48.626;8.978;2023-03-01T08:18:25;0.90;99.90
27026;DHT22;14565;48.626;8.978;2023-03-01T08:20:51;1.00;99.90
27026;DHT22;14565;48.626;8.978;2023-03-01T08:23:16;1.10;99.90
27026;DHT22;14565;48.626;8.978;2023-03-01T08:25:42;1.10;99.90
27026;DHT22;14565;48.626;8.978;2023-03-01T08:28:08;1.20;99.90
27026;DHT22;14565;48.626;8.978;2023-03-01T08:30:34;1.40;99.90
27026;DHT22;14565;48.626;8.978;2023-03-01T08:33:00;1.50;99.90
27026;DHT22;14565;48.626;8.978;2023-03-01T08:35:26;1.50;99.90
27026;DHT22;14565;48.626;8.978;2023-03-01T08:37:51;1.50;99.90
27026;DHT22;14565;48.626;8.978;2023-03-01T08:40:17;1.30;99.90
27026;DHT22;14565;48.626;8.978;2023-03-01T08:42:43;1.30;99.90
27026;DHT22;14565;48.626;8.978;2023-03-01T08:45:09;1.50;99.90
27026;DHT22;14565;48.626;8.978;2023-03-01T08:47:35;1.50;99.90
27026;DHT22;14565;48.626;8.978;2023-03-01T08:50:01;1.30;99.90
27026;DHT22;14565;48.626;8.978;2023-03-01T08:52:27;1.20;99.90
27026;DHT22;14565;48.626;8.978;2023-03-01T08:54:53;1.40;99.90
27026;DHT22;14565;48.626;8.978;2023-03-01T08:57:19;1.50;99.90
27026;DHT22;14565;48.626;8.978;2023-03-01T08:59:44;1.70;99.90
27026;DHT22;14565;48.626;8.978;2023-03-01T09:02:16;1.50;99.90
27026;DHT22;14565;48.626;8.978;2023-03-01T09:04:42;1.50;99.90
27026;DHT22;14565;48.626;8.978;2023-03-01T09:07:08;1.20;99.90
27026;DHT22;14565;48.626;8.978;2023-03-01T09:09:34;1.20;99.90
27026;DHT22;14565;48.626;8.978;2023-03-01T09:12:00;1.40;99.90
27026;DHT22;14565;48.626;8.978;2023-03-01T09:14:25;1.50;99.90
27026;DHT22;14565;48.626;8.978;2023-03-01T09:16:51;1.90;99.90
27026;DHT22;14565;48.626;8.978;2023-03-01T09:19:17;2.00;99.90
27026;DHT22;14565;48.626;8.978;2023-03-01T09:21:42;1.90;99.90
27026;DHT22;14565;48.626;8.978;2023-03-01T09:24:19;1.70;99.90
27026;DHT22;14565;48.626;8.978;2023-03-01T09:26:45;2.10;99.90
27026;DHT22;14565;48.626;8.978;2023-03-01T09:29:14;2.20;99.90
27026;DHT22;14565;48.626;8.978;2023-03-01T09:31:40;2.10;99.90
27026;DHT22;14565;48.626;8.978;2023-03-01T09:34:07;1.80;99.90
27026;DHT22;14565;48.626;8.978;2023-03-01T09:36:33;1.80;99.90
27026;DHT22;14565;48.626;8.978;2023-03-01T09:38:59;1.80;99.90
27026;DHT22;14565;48.626;8.978;2023-03-01T09:42:01;2.20;99.90
27026;DHT22;14565;48.626;8.978;2023-03-01T09:44:48;2.30;99.90
27026;DHT22;14565;48.626;8.978;2023-03-01T09:47:29;2.40;99.90
27026;DHT22;14565;48.626;8.978;2023-03-01T09:52:50;2.40;99.90
27026;DHT22;14565;48.626;8.978;2023-03-01T09:55:37;2.50;99.90
27026;DHT22;14565;48.626;8.978;2023-03-01T10:09:38;2.50;99.90
27026;DHT22;14565;48.626;8.978;2023-03-01T10:12:18;2.70;99.90
27026;DHT22;14565;48.626;8.978;2023-03-01T10:20:23;2.70;99.90
27026;DHT22;14565;48.626;8.978;2023-03-01T10:22:51;2.80;99.90
27026;DHT22;14565;48.626;8.978;2023-03-01T10:27:54;3.10;99.90
27026;DHT22;14565;48.626;8.978;2023-03-01T10:30:29;3.20;99.90
27026;DHT22;14565;48.626;8.978;2023-03-01T10:32:58;3.20;99.90
27026;DHT22;14565;48.626;8.978;2023-03-01T10:35:27;3.20;99.90
27026;DHT22;14565;48.626;8.978;2023-03-01T10:38:08;3.00;99.90
27026;DHT22;14565;48.626;8.978;2023-03-01T10:40:35;3.10;99.90
27026;DHT22;14565;48.626;8.978;2023-03-01T10:43:05;3.10;99.90
27026;DHT22;14565;48.626;8.978;2023-03-01T10:45:37;3.40;99.90
27026;DHT22;14565;48.626;8.978;2023-03-01T10:48:14;3.20;99.90
27026;DHT22;14565;48.626;8.978;2023-03-01T10:53:35;3.30;99.90
27026;DHT22;14565;48.626;8.978;2023-03-01T10:56:10;3.40;99.90
27026;DHT22;14565;48.626;8.978;2023-03-01T10:58:39;3.60;99.90
27026;DHT22;14565;48.626;8.978;2023-03-01T11:03:41;3.80;99.90
27026;DHT22;14565;48.626;8.978;2023-03-01T11:13:35;3.80;99.90
27026;DHT22;14565;48.626;8.978;2023-03-01T11:16:03;3.80;99.90
27026;DHT22;14565;48.626;8.978;2023-03-01T11:18:31;3.90;99.90
27026;DHT22;14565;48.626;8.978;2023-03-01T11:20:58;4.00;99.90
27026;DHT22;14565;48.626;8.978;2023-03-01T11:23:25;4.00;99.90
27026;DHT22;14565;48.626;8.978;2023-03-01T11:25:58;3.80;99.90
27026;DHT22;14565;48.626;8.978;2023-03-01T11:28:28;3.90;99.90
27026;DHT22;14565;48.626;8.978;2023-03-01T11:31:07;4.00;99.90
27026;DHT22;14565;48.626;8.978;2023-03-01T11:34:07;4.10;99.90
27026;DHT22;14565;48.626;8.978;2023-03-01T11:44:54;4.40;99.90
27026;DHT22;14565;48.626;8.978;2023-03-01T11:50:16;4.50;99.90
27026;DHT22;14565;48.626;8.978;2023-03-01T11:56:09;4.70;99.90
27026;DHT22;14565;48.626;8.978;2023-03-01T12:17:51;5.00;99.90
27026;DHT22;14565;48.626;8.978;2023-03-01T12:25:45;5.00;99.90
27026;DHT22;14565;48.626;8.978;2023-03-01T12:31:09;5.00;99.90
27026;DHT22;14565;48.626;8.978;2023-03-01T12:34:08;5.20;99.90
27026;DHT22;14565;48.626;8.978;2023-03-01T12:44:48;5.30;99.90
27026;DHT22;14565;48.626;8.978;2023-03-01T12:50:01;5.10;99.90
27026;DHT22;14565;48.626;8.978;2023-03-01T12:55:39;5.20;99.90
27026;DHT22;14565;48.626;8.978;2023-03-01T13:11:52;5.40;99.90
27026;DHT22;14565;48.626;8.978;2023-03-01T13:16:54;5.70;99.90
27026;DHT22;14565;48.626;8.978;2023-03-01T13:19:25;5.90;99.90
27026;DHT22;14565;48.626;8.978;2023-03-01T13:21:53;5.70;99.90
27026;DHT22;14565;48.626;8.978;2023-03-01T13:24:40;5.80;99.90
27026;DHT22;14565;48.626;8.978;2023-03-01T13:29:51;5.80;99.90
27026;DHT22;14565;48.626;8.978;2023-03-01T13:32:36;5.90;99.90
27026;DHT22;14565;48.626;8.978;2023-03-01T13:37:45;6.00;99.90
27026;DHT22;14565;48.626;8.978;2023-03-01T13:42:50;6.10;99.90
27026;DHT22;14565;48.626;8.978;2023-03-01T13:45:36;6.00;99.90
27026;DHT22;14565;48.626;8.978;2023-03-01T13:50:50;6.30;99.90
27026;DHT22;14565;48.626;8.978;2023-03-01T13:53:20;6.20;99.90
27026;DHT22;14565;48.626;8.978;2023-03-01T13:56:01;6.20;99.90
27026;DHT22;14565;48.626;8.978;2023-03-01T13:58:30;6.20;99.90
27026;DHT22;14565;48.626;8.978;2023-03-01T14:01:04;6.10;99.90
27026;DHT22;14565;48.626;8.978;2023-03-01T14:03:33;6.30;99.90
27026;DHT22;14565;48.626;8.978;2023-03-01T14:06:04;6.40;99.90
27026;DHT22;14565;48.626;8.978;2023-03-01T14:08:37;6.60;99.90
27026;DHT22;14565;48.626;8.978;2023-03-01T14:21:41;6.30;99.90
27026;DHT22;14565;48.626;8.978;2023-03-01T14:24:21;6.20;99.90
27026;DHT22;14565;48.626;8.978;2023-03-01T14:26:49;6.30;99.90
27026;DHT22;14565;48.626;8.978;2023-03-01T14:29:26;6.40;99.90
27026;DHT22;14565;48.626;8.978;2023-03-01T14:31:52;6.40;99.90
27026;DHT22;14565;48.626;8.978;2023-03-01T14:34:22;6.50;99.90
27026;DHT22;14565;48.626;8.978;2023-03-01T14:36:49;6.70;99.90
27026;DHT22;14565;48.626;8.978;2023-03-01T14:39:20;6.60;99.90
27026;DHT22;14565;48.626;8.978;2023-03-01T14:41:48;6.60;99.90
27026;DHT22;14565;48.626;8.978;2023-03-01T14:44:22;6.60;99.90
27026;DHT22;14565;48.626;8.978;2023-03-01T14:46:54;6.50;99.90
27026;DHT22;14565;48.626;8.978;2023-03-01T14:49:26;6.50;99.90
27026;DHT22;14565;48.626;8.978;2023-03-01T14:54:41;6.60;99.90
27026;DHT22;14565;48.626;8.978;2023-03-01T14:57:25;6.40;99.90
27026;DHT22;14565;48.626;8.978;2023-03-01T14:59:57;6.40;99.90
27026;DHT22;14565;48.626;8.978;2023-03-01T15:02:25;6.30;99.90
27026;DHT22;14565;48.626;8.978;2023-03-01T15:04:55;6.20;99.90
27026;DHT22;14565;48.626;8.978;2023-03-01T15:07:29;6.00;99.90
27026;DHT22;14565;48.626;8.978;2023-03-01T15:09:57;6.00;99.90
27026;DHT22;14565;48.626;8.978;2023-03-01T15:14:55;5.90;99.90
27026;DHT22;14565;48.626;8.978;2023-03-01T15:17:33;5.90;99.90
27026;DHT22;14565;48.626;8.978;2023-03-01T15:20:01;5.90;99.90
27026;DHT22;14565;48.626;8.978;2023-03-01T15:22:27;5.90;99.90
27026;DHT22;14565;48.626;8.978;2023-03-01T15:24:54;5.90;99.90
27026;DHT22;14565;48.626;8.978;2023-03-01T15:27:24;5.80;99.90
27026;DHT22;14565;48.626;8.978;2023-03-01T15:29:56;5.80;99.90
27026;DHT22;14565;48.626;8.978;2023-03-01T15:34:57;5.80;99.90
27026;DHT22;14565;48.626;8.978;2023-03-01T15:40:21;5.80;99.90
27026;DHT22;14565;48.626;8.978;2023-03-01T15:42:50;5.80;99.90
27026;DHT22;14565;48.626;8.978;2023-03-01T15:47:48;5.80;99.90
27026;DHT22;14565;48.626;8.978;2023-03-01T15:50:29;5.70;99.90
27026;DHT22;14565;48.626;8.978;2023-03-01T15:52:56;5.70;99.90
27026;DHT22;14565;48.626;8.978;2023-03-01T15:55:28;5.60;99.90
27026;DHT22;14565;48.626;8.978;2023-03-01T15:58:15;5.50;99.90
27026;DHT22;14565;48.626;8.978;2023-03-01T16:00:41;5.50;99.90
27026;DHT22;14565;48.626;8.978;2023-03-01T16:03:08;5.50;99.90
27026;DHT22;14565;48.626;8.978;2023-03-01T16:05:37;5.40;99.90
27026;DHT22;14565;48.626;8.978;2023-03-01T16:08:04;5.30;99.90
27026;DHT22;14565;48.626;8.978;2023-03-01T16:10:32;5.20;99.90
27026;DHT22;14565;48.626;8.978;2023-03-01T16:12:58;5.10;99.90
27026;DHT22;14565;48.626;8.978;2023-03-01T16:15:29;5.20;99.90
27026;DHT22;14565;48.626;8.978;2023-03-01T16:17:55;5.10;99.90
27026;DHT22;14565;48.626;8.978;2023-03-01T16:20:24;5.00;99.90
27026;DHT22;14565;48.626;8.978;2023-03-01T16:22:50;5.00;99.90
27026;DHT22;14565;48.626;8.978;2023-03-01T16:25:18;4.90;99.90
27026;DHT22;14565;48.626;8.978;2023-03-01T16:27:46;4.90;99.90
27026;DHT22;14565;48.626;8.978;2023-03-01T16:30:13;4.80;99.90
27026;DHT22;14565;48.626;8.978;2023-03-01T16:32:41;4.80;99.90
27026;DHT22;14565;48.626;8.978;2023-03-01T16:35:08;4.80;99.90
27026;DHT22;14565;48.626;8.978;2023-03-01T16:37:35;4.70;99.90
27026;DHT22;14565;48.626;8.978;2023-03-01T16:40:01;4.60;99.90
27026;DHT22;14565;48.626;8.978;2023-03-01T16:42:35;4.60;99.90
27026;DHT22;14565;48.626;8.978;2023-03-01T16:45:01;4.50;99.90
27026;DHT22;14565;48.626;8.978;2023-03-01T16:47:27;4.60;99.90
27026;DHT22;14565;48.626;8.978;2023-03-01T16:49:53;4.40;99.90
27026;DHT22;14565;48.626;8.978;2023-03-01T16:52:20;4.30;99.90
27026;DHT22;14565;48.626;8.978;2023-03-01T16:54:46;4.20;99.90
27026;DHT22;14565;48.626;8.978;2023-03-01T16:57:11;4.20;99.90
27026;DHT22;14565;48.626;8.978;2023-03-01T16:59:37;4.20;99.90
27026;DHT22;14565;48.626;8.978;2023-03-01T17:02:04;4.10;99.90
27026;DHT22;14565;48.626;8.978;2023-03-01T17:04:31;4.10;99.90
27026;DHT22;14565;48.626;8.978;2023-03-01T17:06:57;4.00;99.90
27026;DHT22;14565;48.626;8.978;2023-03-01T17:09:22;4.00;99.90
27026;DHT22;14565;48.626;8.978;2023-03-01T17:11:49;4.00;99.90
27026;DHT22;14565;48.626;8.978;2023-03-01T17:14:15;4.00;99.90
27026;DHT22;14565;48.626;8.978;2023-03-01T17:16:44;4.00;99.90
27026;DHT22;14565;48.626;8.978;2023-03-01T17:19:10;3.80;99.90
27026;DHT22;14565;48.626;8.978;2023-03-01T17:21:36;3.70;99.90
27026;DHT22;14565;48.626;8.978;2023-03-01T17:24:02;3.70;99.90
27026;DHT22;14565;48.626;8.978;2023-03-01T17:26:28;3.60;99.90
27026;DHT22;14565;48.626;8.978;2023-03-01T17:28:55;3.70;99.90
27026;DHT22;14565;48.626;8.978;2023-03-01T17:31:22;3.70;99.90
27026;DHT22;14565;48.626;8.978;2023-03-01T17:33:48;3.70;99.90
27026;DHT22;14565;48.626;8.978;2023-03-01T17:36:14;3.70;99.90
27026;DHT22;14565;48.626;8.978;2023-03-01T17:38:40;3.60;99.90
27026;DHT22;14565;48.626;8.978;2023-03-01T17:41:06;3.60;99.90
27026;DHT22;14565;48.626;8.978;2023-03-01T17:43:31;3.40;99.90
27026;DHT22;14565;48.626;8.978;2023-03-01T17:45:59;3.30;99.90
27026;DHT22;14565;48.626;8.978;2023-03-01T17:48:25;3.30;99.90
27026;DHT22;14565;48.626;8.978;2023-03-01T17:50:50;3.10;99.90
27026;DHT22;14565;48.626;8.978;2023-03-01T17:53:16;3.00;99.90
27026;DHT22;14565;48.626;8.978;2023-03-01T17:55:42;3.00;99.90
27026;DHT22;14565;48.626;8.978;2023-03-01T17:58:11;3.00;99.90
27026;DHT22;14565;48.626;8.978;2023-03-01T18:00:37;2.90;99.90
27026;DHT22;14565;48.626;8.978;2023-03-01T18:03:04;2.80;99.90
27026;DHT22;14565;48.626;8.978;2023-03-01T18:05:34;2.70;99.90
27026;DHT22;14565;48.626;8.978;2023-03-01T18:08:02;2.60;99.90
27026;DHT22;14565;48.626;8.978;2023-03-01T18:10:28;2.60;99.90
27026;DHT22;14565;48.626;8.978;2023-03-01T18:12:53;2.60;99.90
27026;DHT22;14565;48.626;8.978;2023-03-01T18:15:19;2.60;99.90
27026;DHT22;14565;48.626;8.978;2023-03-01T18:17:44;2.70;99.90
27026;DHT22;14565;48.626;8.978;2023-03-01T18:20:10;2.70;99.90
27026;DHT22;14565;48.626;8.978;2023-03-01T18:22:37;2.70;99.90
27026;DHT22;14565;48.626;8.978;2023-03-01T18:25:04;2.70;99.90